• Join FlightAware (Why Join?)
  • Login
  • US Flag 
11:04PM EST


 

Airport Tracker/Info


-or-


 

Live Flight TrackerFlight Track Log ✈ SKW5550 ✈ 12-Oct-2013 ✈ KCOD - KDEN

Flight Track Log - Related Links

Times and Time Zones

All times are in EDT time to prevent confusion due to time zone crossing. See the SKW5550 flight status page for this flight to view local times or setup timezone preferences in your user account.

Time Position Orientation Groundspeed Altitude Reporting Facility
EDT Latitude Longitude Course Direction KTS MPH feet Rate Location/Type
09:57AM 44.5061 -109.0539 182° South 151 174 6,100  Level Salt Lake Center
09:58AM 44.4675 -109.0539 180° South 248 285 7,700 1,967 Climbing Salt Lake Center
09:59AM 44.5000 -108.9908 54° Northeast 243 280 10,100 2,459 Climbing Salt Lake Center
10:00AM 43.9121 -108.4085 157° South  Level Estimated
10:00AM 44.5753 -108.9889 North 272 313 12,700  Level Salt Lake Center
10:01AM 43.8250 -108.3217 157° South  Level Estimated
10:01AM 44.6431 -108.9483 23° Northeast 313 360 14,800  Level Salt Lake Center
10:02AM 43.7177 -108.3260 182° South  Level FlightAware Approximate
10:02AM 44.5922 -108.8736 134° Southeast 308 354 16,700  Level Salt Lake Center
10:03AM 44.4786 -108.8747 180° South 341 392 18,200 1,525 Climbing Salt Lake Center
10:04AM 44.3831 -108.8269 160° South 362 417 19,800 1,574 Climbing Salt Lake Center
10:05AM 44.2869 -108.7733 158° South 371 427 21,400 1,426 Climbing Salt Lake Center
10:06AM 44.1883 -108.7167 158° South 379 436 22,700 1,230 Climbing Salt Lake Center
10:07AM 44.0892 -108.6569 157° South 386 444 23,900 1,180 Climbing Salt Lake Center
10:08AM 43.9875 -108.6003 158° South 393 452 25,100 1,033 Climbing Salt Lake Center
10:09AM 43.8867 -108.5422 157° South 395 455 26,000 885 Climbing Salt Lake Center
10:10AM 43.7819 -108.4833 158° South 403 464 26,900 836 Climbing Salt Lake Center
10:11AM 43.6769 -108.4283 159° South 405 466 27,700 738 Climbing Salt Lake Center
10:12AM 43.5717 -108.4647 194° South 395 455 28,400 738 Climbing Salt Lake Center
10:13AM 43.4450 -108.5108 195° South 393 452 29,200 787 Climbing Salt Lake Center
10:14AM 43.3442 -108.4361 152° Southeast 419 482 30,000 738 Climbing Salt Lake Center
10:15AM 43.2539 -108.3267 139° Southeast 434 499 30,700 492 Climbing Salt Lake Center
10:16AM 43.1636 -108.2194 139° Southeast 432 497 31,000 148 Climbing Salt Lake Center
10:17AM 43.0706 -108.1075 139° Southeast 444 511 31,000  Level Salt Lake Center
10:18AM 42.9753 -107.9931 139° Southeast 455 524 31,000  Level Salt Lake Center
10:19AM 42.8819 -107.8819 139° Southeast 457 526 31,000  Level Salt Lake Center
10:20AM 42.7739 -107.7544 139° Southeast 459 528 31,000  Level Salt Lake Center
10:21AM 42.6833 -107.6475 139° Southeast 453 521 31,000  Level Salt Lake Center
10:22AM 42.5772 -107.5236 139° Southeast 451 519 31,000  Level Salt Lake Center
10:23AM 42.4853 -107.4175 140° Southeast 451 519 31,000  Level Salt Lake Center
10:24AM 42.3939 -107.3108 139° Southeast 451 519 31,000  Level Salt Lake Center
10:25AM 42.3017 -107.2075 140° Southeast 450 518 31,000  Level Denver Center
10:26AM 42.2078 -107.1064 141° Southeast 451 519 31,000  Level Denver Center
10:27AM 42.0958 -106.9883 142° Southeast 456 525 31,000  Level Denver Center
10:28AM 41.9997 -106.8864 142° Southeast 459 528 31,000  Level Denver Center
10:29AM 41.9036 -106.7850 142° Southeast 458 527 31,000  Level Denver Center
10:30AM 41.7917 -106.6644 141° Southeast 460 529 31,000  Level Denver Center
10:31AM 41.6942 -106.5631 142° Southeast 461 531 31,000  Level Denver Center
10:32AM 41.5922 -106.4564 142° Southeast 463 533 31,000  Level Denver Center
10:33AM 41.4792 -106.3386 142° Southeast 462 532 31,000  Level Denver Center
10:34AM 41.3839 -106.2392 142° Southeast 457 526 31,000  Level Denver Center
10:35AM 41.2703 -106.1231 142° Southeast 460 529 31,000  Level Denver Center
10:37AM 41.1742 -106.0222 142° Southeast 459 528 31,000  Level Denver Center
10:38AM 41.0606 -105.9061 142° Southeast 461 531 31,000  Level Denver Center
10:39AM 40.9728 -105.8164 142° Southeast 463 533 31,000 -829 Level Denver Center
10:40AM 40.8506 -105.6919 142° Southeast 462 532 29,300 -1,951 Descending Denver Center
10:41AM 40.7533 -105.5944 143° Southeast 447 514 27,000 -2,226 Descending Denver Center
10:42AM 40.6619 -105.5031 143° Southeast 423 487 24,700 -2,129 Descending Denver Center
10:43AM 40.5822 -105.4019 136° Southeast 405 466 22,600 -1,790 Descending Denver Center
10:44AM 40.5203 -105.2892 126° Southeast 389 448 21,000 -1,306 Descending Denver Center
10:45AM 40.4428 -105.1978 138° Southeast 342 394 19,900 -1,500 Descending Denver Center
10:46AM 40.3567 -105.1289 149° Southeast 340 391 17,900 -1,742 Descending Denver Center
10:47AM 40.2714 -105.0589 148° Southeast 360 414 16,300 -1,403 Descending Denver Center
10:48AM 40.1989 -104.9750 139° Southeast 349 402 15,000 -634 Descending Denver Center
10:49AM 40.1353 -104.9011 138° Southeast 288 331 15,000  Level Denver Center
10:50AM 40.0797 -104.8364 138° Southeast 270 311 15,000  Level Denver Center
10:51AM 40.0167 -104.7633 138° Southeast 277 319 15,000 -532 Level Denver Center
10:52AM 39.9825 -104.6722 116° Southeast 278 320 13,900 -1,009 Descending Denver Center
10:53AM 39.9500 -104.6000 120° Southeast 272 313 13,100 -973 Descending Denver TRACON
10:54AM 39.9167 -104.5333 123° Southeast 255 293 12,100 -1,000 Descending Denver TRACON
10:55AM 39.8500 -104.5167 169° South 254 292 11,100 -550 Descending Denver TRACON
10:56AM 39.7833 -104.5167 180° South 247 284 11,000 -571 Descending Denver TRACON
10:57AM 39.7000 -104.5000 171° South 235 270 9,900 -1,000 Descending Denver TRACON
10:58AM 39.6500 -104.5000 180° South 244 281 9,000 -474 Descending Denver TRACON
10:59AM 39.5833 -104.5167 191° South 242 278 9,000 -400 Level Denver TRACON
11:00AM 39.5167 -104.5167 180° South 220 253 8,200 -500 Descending Denver TRACON
11:01AM 39.5167 -104.6000 270° West 204 235 8,000 -100 Descending Denver TRACON
11:02AM 39.5500 -104.6500 311° West 227 261 8,000  Level Denver TRACON
11:03AM 39.6000 -104.6500 360° North 215 247 8,000 66 Level Denver TRACON
11:03AM 39.6294 -104.6450 North 212 244 8,100 65 Climbing Denver Center
11:04AM 39.6833 -104.6431 North 199 229 8,100 -480 Level Denver Center
11:05AM 39.7489 -104.6425 360° North 197 227 7,100 -864 Descending Denver Center
11:06AM 39.7911 -104.6419 North 154 177 6,300 -774 Descending Denver Center
11:08AM 39.8331 -104.6414 North 151 174 5,500 -774 Descending Denver Center